Airfield :
LOGIN :

Register | Disclaimer

   EN    FR    IT 

 










Legend :    VFR   Marginal VFR   IFR   Intensive IFR   Very Intensive IFR
Visi :
Ceiling :
>= 8 km
>= 3000ft
5 to 8 km
1000 to 3000 ft
1500m to 5 km
500 to 1000 ft
800 to 1500m
200 to 500 ft
< 800m
< 200 ft
Symbols :   Thunderstorms  Fog  Heavy snow  Heavy precipitations  Wind > 20 kt
SIGMETs :     Misc.  Thunderstorms  Icing  Turbulence  Mountain Waves  Volcanic Ashes







- Airport Elevation : 235 ft
- IATA code : BZG


EPBY - Bydgoszcz

CURRENT METAR :
  • 232000Z 06008KT 9999 OVC047 07/M01 Q1021

EXPIRED METARs :
  • 231930Z 07010KT 9999 OVC047 07/M01 Q1021
  • 231900Z 08008KT 9999 OVC046 07/M02 Q1021
  • 231830Z 09009KT 9999 SCT039 OVC044 07/M01 Q1021
  • 231800Z 09010KT 9999 OVC045 07/M01 Q1021
  • 231730Z 09011KT 9999 OVC048 07/M02 Q1021
  • 231700Z 10009KT 070V130 9999 OVC049 08/M03 Q1021

TAF TAF EPBY
Valid from the 23 at 18:00 until the 24 at 18:00 UTC


231730Z 2318/2418 06007KT 9999 BKN030
PROB30
TEMPO 2318/2403 -RA BKN012
No reported NOTAMs for that airfield.



MET'MAP, your aeronautical weather chart ! - Copyright ORBIFLY December 2007 - Disclaimer

ORBIFLY MET'MAP TEAM :

Programming & Development : Alexandra Zaïnal
Concept & Development : Baudouin d'Aumeries
Co-Development & Prog : Marc-Olivier Méhu
Technical & hardware support : Manuel Goepfert

Contact : metmap@orbifly.com




SOURCES & CREDITS :

   NOAA